createdAt,value
2024-04-02T00:04:36.639Z,10.20
2024-04-02T00:07:06.484Z,10.50
2024-04-02T00:09:36.032Z,10.60
2024-04-02T00:12:05.926Z,10.60
2024-04-02T00:14:35.506Z,10.70
2024-04-02T00:17:05.124Z,10.80
2024-04-02T00:19:34.720Z,10.80
2024-04-02T00:22:04.439Z,10.70
2024-04-02T00:24:33.929Z,10.50
2024-04-02T00:27:03.421Z,10.70
2024-04-02T00:29:32.949Z,10.90
2024-04-02T00:32:02.446Z,10.80
2024-04-02T00:34:31.939Z,10.80
2024-04-02T00:37:01.491Z,10.90
2024-04-02T00:39:31.130Z,11.00
2024-04-02T00:42:00.622Z,11.00
2024-04-02T00:44:30.133Z,10.80
2024-04-02T00:47:00.224Z,10.80
2024-04-02T00:49:30.061Z,10.60
2024-04-02T00:52:00.604Z,10.60
2024-04-02T00:54:32.398Z,10.40
2024-04-02T00:57:02.606Z,10.00
2024-04-02T00:59:34.291Z,10.00
2024-04-02T01:02:04.282Z,10.00
2024-04-02T01:04:33.860Z,10.30
2024-04-02T01:07:04.891Z,10.30
2024-04-02T01:09:36.045Z,10.30
2024-04-02T01:12:08.360Z,10.30
2024-04-02T01:14:41.369Z,10.20
2024-04-02T01:17:13.899Z,10.30
2024-04-02T01:19:43.485Z,10.30
2024-04-02T01:22:13.030Z,10.30
2024-04-02T01:24:45.645Z,10.30
2024-04-02T01:27:15.214Z,9.90
2024-04-02T01:29:44.695Z,9.80
2024-04-02T01:32:14.688Z,9.60
2024-04-02T01:34:44.180Z,9.70
2024-04-02T01:37:13.659Z,9.30
2024-04-02T01:39:43.156Z,9.50
2024-04-02T01:42:12.814Z,9.70
2024-04-02T01:44:42.301Z,9.70
2024-04-02T01:47:12.511Z,9.80
2024-04-02T01:49:42.077Z,9.80
2024-04-02T01:52:11.591Z,9.90
2024-04-02T01:54:41.228Z,9.80
2024-04-02T01:57:10.739Z,9.90
2024-04-02T01:59:40.289Z,9.70
2024-04-02T02:02:09.932Z,9.90
2024-04-02T02:04:39.499Z,9.60
2024-04-02T02:07:09.054Z,9.40
2024-04-02T02:09:38.597Z,9.70
2024-04-02T02:12:08.460Z,9.40
2024-04-02T02:14:38.016Z,9.40
2024-04-02T02:17:07.659Z,9.10
2024-04-02T02:22:16.578Z,8.70
2024-04-02T02:25:43.501Z,9.00
2024-04-02T02:28:13.055Z,8.90
2024-04-02T02:30:42.695Z,8.80
2024-04-02T02:33:12.266Z,8.80
2024-04-02T02:35:42.043Z,9.00
2024-04-02T02:38:11.620Z,9.10
2024-04-02T02:40:41.098Z,9.20
2024-04-02T02:43:11.552Z,9.10
2024-04-02T02:45:51.546Z,9.10
2024-04-02T02:48:21.384Z,8.90
2024-04-02T02:50:51.406Z,8.70
2024-04-02T02:53:21.146Z,8.60
2024-04-02T02:55:57.604Z,8.60
2024-04-02T02:58:27.469Z,8.70
2024-04-02T03:00:57.078Z,8.90
2024-04-02T03:03:26.574Z,9.00
2024-04-02T03:05:57.078Z,9.10
2024-04-02T03:08:26.878Z,9.10
2024-04-02T03:11:07.241Z,9.20
2024-04-02T03:13:37.473Z,9.20
2024-04-02T03:16:07.293Z,9.20
2024-04-02T03:18:36.884Z,9.10
2024-04-02T03:21:06.911Z,9.10
2024-04-02T03:23:36.398Z,8.80
2024-04-02T03:26:06.181Z,8.90
2024-04-02T03:28:35.972Z,8.80
2024-04-02T03:31:05.619Z,8.80
2024-04-02T03:33:35.228Z,8.80
2024-04-02T03:36:06.995Z,8.50
2024-04-02T03:38:36.958Z,8.20
2024-04-02T03:41:15.019Z,8.00
2024-04-02T03:43:45.305Z,8.00
2024-04-02T03:46:14.870Z,8.10
2024-04-02T03:48:44.976Z,8.20
2024-04-02T03:51:16.580Z,8.20
2024-04-02T03:53:46.192Z,8.30
2024-04-02T03:56:17.254Z,8.30
2024-04-02T03:58:47.194Z,8.60
2024-04-02T04:01:17.044Z,8.70
2024-04-02T04:03:46.594Z,8.80
2024-04-02T04:06:16.242Z,8.70
2024-04-02T04:08:45.797Z,8.60
2024-04-02T04:11:15.317Z,8.60
2024-04-02T04:13:44.819Z,8.70
2024-04-02T04:16:18.945Z,8.70
2024-04-02T04:18:48.491Z,8.70
2024-04-02T04:21:17.970Z,8.70
2024-04-02T04:23:47.462Z,8.70
2024-04-02T04:26:17.135Z,8.70
2024-04-02T04:28:46.706Z,8.60
2024-04-02T04:31:16.211Z,8.60
2024-04-02T04:33:45.718Z,8.60
2024-04-02T04:36:15.219Z,8.60
2024-04-02T04:38:45.898Z,8.50
2024-04-02T04:41:15.465Z,8.40
2024-04-02T04:43:44.926Z,8.40
2024-04-02T04:46:14.795Z,8.40
2024-04-02T04:48:44.303Z,8.40
2024-04-02T04:51:13.857Z,8.50
2024-04-02T04:53:43.746Z,8.50
2024-04-02T04:56:13.306Z,8.60
2024-04-02T04:58:42.797Z,8.50
2024-04-02T05:01:12.851Z,8.50
2024-04-02T05:03:42.415Z,8.30
2024-04-02T05:06:12.034Z,8.40
2024-04-02T05:08:41.600Z,8.50
2024-04-02T05:11:11.234Z,8.50
2024-04-02T05:13:42.437Z,8.50
2024-04-02T05:16:12.067Z,8.50
2024-04-02T05:18:41.556Z,8.50
2024-04-02T05:21:11.043Z,8.40
2024-04-02T05:23:41.166Z,8.40
2024-04-02T05:26:11.150Z,7.90
2024-04-02T05:28:41.805Z,7.70
2024-04-02T05:31:12.951Z,7.60
2024-04-02T05:33:42.543Z,7.80
2024-04-02T05:36:12.107Z,8.10
2024-04-02T05:38:43.530Z,8.10
2024-04-02T05:41:12.885Z,8.10
2024-04-02T05:43:42.434Z,8.20
2024-04-02T05:46:11.941Z,8.20
2024-04-02T05:48:41.433Z,8.30
2024-04-02T05:51:10.975Z,8.30
2024-04-02T05:53:41.138Z,8.30
2024-04-02T05:56:10.638Z,8.20
2024-04-02T05:58:40.199Z,8.20
2024-04-02T06:01:10.390Z,8.30
2024-04-02T06:03:40.301Z,8.30
2024-04-02T06:06:09.927Z,8.30
2024-04-02T06:08:39.419Z,8.20
2024-04-02T06:11:09.147Z,8.30
2024-04-02T06:13:38.707Z,8.40
2024-04-02T06:16:08.277Z,8.30
2024-04-02T06:18:37.891Z,8.40
2024-04-02T06:21:07.381Z,8.50
2024-04-02T06:23:37.101Z,8.50
2024-04-02T06:26:06.693Z,8.70
2024-04-02T06:28:36.202Z,8.80
2024-04-02T06:31:05.842Z,8.60
2024-04-02T06:33:35.332Z,8.40
2024-04-02T06:36:05.258Z,8.30
2024-04-02T06:38:34.944Z,8.40
2024-04-02T06:41:04.951Z,8.50
2024-04-02T06:43:34.486Z,8.50
2024-04-02T06:46:04.147Z,8.60
2024-04-02T06:48:33.767Z,8.60
2024-04-02T06:51:09.556Z,8.70
2024-04-02T06:53:39.320Z,8.90
2024-04-02T06:56:08.987Z,9.00
2024-04-02T06:58:41.798Z,9.30
2024-04-02T07:01:11.341Z,9.50
2024-04-02T07:03:41.028Z,9.40
2024-04-02T07:06:10.533Z,9.60
2024-04-02T07:08:41.837Z,9.90
2024-04-02T07:11:11.595Z,9.90
2024-04-02T07:13:42.154Z,10.00
2024-04-02T07:16:11.775Z,10.30
2024-04-02T07:18:41.246Z,10.40
2024-04-02T07:21:10.950Z,10.50
2024-04-02T07:23:41.830Z,11.10
2024-04-02T07:26:11.392Z,11.00
2024-04-02T07:28:41.977Z,11.30
2024-04-02T07:31:11.582Z,11.50
2024-04-02T07:33:41.072Z,12.10
2024-04-02T07:36:10.713Z,12.10
2024-04-02T07:38:40.239Z,12.20
2024-04-02T07:41:11.275Z,12.30
2024-04-02T07:43:40.849Z,12.40
2024-04-02T07:46:12.380Z,12.60
2024-04-02T07:48:41.963Z,12.60
2024-04-02T07:51:12.213Z,12.90
2024-04-02T07:53:41.769Z,12.90
2024-04-02T07:56:11.278Z,12.60
2024-04-02T07:58:42.006Z,13.10
2024-04-02T08:01:11.600Z,13.30
2024-04-02T08:03:41.174Z,13.70
2024-04-02T08:06:10.680Z,13.50
2024-04-02T08:08:40.247Z,14.00
2024-04-02T08:11:09.905Z,13.90
2024-04-02T08:13:39.466Z,14.00
2024-04-02T08:16:09.062Z,14.00
2024-04-02T08:18:38.612Z,14.30
2024-04-02T08:21:08.475Z,14.50
2024-04-02T08:23:38.302Z,14.00
2024-04-02T08:26:07.938Z,14.50
2024-04-02T08:28:37.440Z,15.00
2024-04-02T08:31:07.036Z,14.60
2024-04-02T08:33:36.544Z,14.50
2024-04-02T08:36:06.504Z,15.20
2024-04-02T08:38:36.106Z,15.20
2024-04-02T08:41:06.354Z,14.90
2024-04-02T08:43:36.329Z,15.30
2024-04-02T08:46:08.981Z,15.40
2024-04-02T08:48:38.347Z,15.40
2024-04-02T08:51:08.735Z,15.40
2024-04-02T08:53:38.410Z,15.20
2024-04-02T08:56:11.220Z,15.80
2024-04-02T08:58:39.644Z,15.90
2024-04-02T09:01:10.880Z,15.90
2024-04-02T09:03:41.047Z,16.10
2024-04-02T09:06:10.611Z,15.80
2024-04-02T09:08:50.487Z,15.60
2024-04-02T09:11:19.973Z,15.80
2024-04-02T09:13:49.538Z,16.40
2024-04-02T09:16:19.442Z,15.60
2024-04-02T09:18:49.812Z,15.90
2024-04-02T09:21:19.375Z,15.70
2024-04-02T09:23:48.928Z,16.30
2024-04-02T09:26:20.203Z,15.90
2024-04-02T09:28:49.695Z,16.40
2024-04-02T09:31:19.293Z,16.50
2024-04-02T09:33:50.828Z,16.30
2024-04-02T09:36:41.827Z,15.70
2024-04-02T09:39:18.030Z,16.40
2024-04-02T09:42:01.325Z,16.40
2024-04-02T09:44:23.027Z,16.00
2024-04-02T09:46:53.459Z,16.00
2024-04-02T09:49:30.937Z,16.20
2024-04-02T09:51:58.049Z,16.10
2024-04-02T09:54:27.821Z,16.60
2024-04-02T09:56:59.745Z,16.80
2024-04-02T09:59:29.446Z,16.50
2024-04-02T10:01:59.963Z,16.30
2024-04-02T10:04:30.129Z,16.30
2024-04-02T10:07:03.599Z,16.30
2024-04-02T10:09:43.947Z,16.30
2024-04-02T10:12:13.984Z,17.00
2024-04-02T10:14:45.882Z,17.80
2024-04-02T10:17:17.974Z,17.70
2024-04-02T10:19:50.523Z,17.60
2024-04-02T10:22:37.490Z,17.60
2024-04-02T10:25:11.790Z,18.10
2024-04-02T10:27:46.307Z,17.60
2024-04-02T10:30:26.761Z,18.70
2024-04-02T10:32:57.709Z,18.00
2024-04-02T10:35:29.318Z,16.90
2024-04-02T10:38:00.632Z,17.00
2024-04-02T10:40:31.898Z,16.80
2024-04-02T10:43:01.731Z,17.70
2024-04-02T10:45:31.463Z,18.70
2024-04-02T10:48:02.855Z,18.30
2024-04-02T10:50:32.523Z,18.20
2024-04-02T10:53:02.127Z,18.30
2024-04-02T10:55:31.765Z,18.80
2024-04-02T10:58:03.583Z,17.90
2024-04-02T11:00:33.234Z,18.10
2024-04-02T11:03:03.759Z,19.30
2024-04-02T11:05:33.251Z,19.40
2024-04-02T11:08:04.116Z,18.10
2024-04-02T11:10:33.684Z,18.00
2024-04-02T11:13:03.272Z,18.30
2024-04-02T11:15:33.009Z,20.10
2024-04-02T11:18:02.773Z,20.20
2024-04-02T11:20:33.007Z,18.40
2024-04-02T11:23:23.343Z,19.00
2024-04-02T11:25:53.492Z,19.60
2024-04-02T11:28:23.036Z,19.10
2024-04-02T11:30:53.529Z,18.70
2024-04-02T11:33:23.134Z,19.60
2024-04-02T11:35:56.931Z,19.10
2024-04-02T11:38:26.440Z,19.40
2024-04-02T11:40:57.948Z,19.30
2024-04-02T11:43:27.499Z,19.70
2024-04-02T11:45:57.083Z,19.10
2024-04-02T11:48:26.850Z,19.80
2024-04-02T11:50:56.340Z,19.80
2024-04-02T11:53:25.908Z,18.60
2024-04-02T11:55:55.471Z,18.60
2024-04-02T11:58:43.053Z,19.00
2024-04-02T12:01:12.662Z,18.90
2024-04-02T12:03:42.340Z,18.20
2024-04-02T12:06:11.919Z,18.40
2024-04-02T12:08:41.487Z,18.80
2024-04-02T12:11:11.353Z,19.40
2024-04-02T12:13:40.902Z,19.40
2024-04-02T12:16:10.468Z,19.00
2024-04-02T12:18:41.647Z,20.40
2024-04-02T12:21:11.813Z,19.70
2024-04-02T12:23:41.353Z,19.10
2024-04-02T12:26:10.925Z,19.40
2024-04-02T12:28:40.812Z,19.20
2024-04-02T12:31:10.584Z,20.10
2024-04-02T12:33:40.542Z,19.40
2024-04-02T12:36:10.305Z,19.40
2024-04-02T12:38:39.815Z,18.70
2024-04-02T12:41:09.307Z,19.00
2024-04-02T12:43:38.925Z,19.60
2024-04-02T12:46:08.482Z,19.20
2024-04-02T12:48:52.229Z,19.90
2024-04-02T12:51:12.580Z,19.90
2024-04-02T12:53:42.180Z,19.80
2024-04-02T12:56:12.174Z,19.40
2024-04-02T12:58:41.684Z,19.40
2024-04-02T13:01:11.253Z,18.90
2024-04-02T13:03:40.724Z,18.60
2024-04-02T13:06:10.229Z,18.40
2024-04-02T13:08:41.538Z,18.50
2024-04-02T13:11:12.295Z,18.60
2024-04-02T13:13:43.551Z,18.20
2024-04-02T13:16:26.676Z,18.70
2024-04-02T13:18:55.398Z,18.90
2024-04-02T13:21:24.951Z,18.90
2024-04-02T13:23:56.080Z,19.00
2024-04-02T13:26:27.128Z,18.40
2024-04-02T13:29:02.088Z,18.40
2024-04-02T13:31:34.019Z,18.80
2024-04-02T13:34:03.900Z,19.00
2024-04-02T13:36:33.370Z,18.50
2024-04-02T13:39:03.173Z,18.50
2024-04-02T13:41:32.739Z,18.50
2024-04-02T13:44:02.225Z,18.70
2024-04-02T13:46:31.915Z,18.70
2024-04-02T13:49:01.412Z,18.90
2024-04-02T13:51:30.889Z,18.90
2024-04-02T13:54:00.415Z,18.80
2024-04-02T13:56:29.918Z,18.90
2024-04-02T13:58:59.540Z,19.00
2024-04-02T14:01:29.171Z,19.50
2024-04-02T14:03:59.217Z,19.00
2024-04-02T14:06:28.822Z,19.10
2024-04-02T14:08:58.318Z,19.40
2024-04-02T14:11:27.818Z,18.80
2024-04-02T14:13:57.383Z,18.70
2024-04-02T14:16:27.236Z,18.70
2024-04-02T14:19:01.101Z,18.70
2024-04-02T14:21:30.609Z,18.90
2024-04-02T14:24:01.781Z,19.10
2024-04-02T14:26:31.801Z,18.80
2024-04-02T14:29:03.223Z,18.90
2024-04-02T14:31:32.385Z,18.90
2024-04-02T14:34:03.544Z,19.10
2024-04-02T14:36:33.449Z,19.20
2024-04-02T14:39:03.466Z,19.10
2024-04-02T14:41:33.008Z,18.90
2024-04-02T14:44:02.536Z,19.20
2024-04-02T14:46:33.934Z,19.40
2024-04-02T14:49:03.442Z,19.70
2024-04-02T14:51:32.947Z,19.20
2024-04-02T14:54:02.470Z,19.40
2024-04-02T14:56:32.098Z,19.40
2024-04-02T14:59:01.833Z,19.80
2024-04-02T15:01:31.468Z,19.40
2024-04-02T15:04:00.942Z,19.00
2024-04-02T15:06:30.446Z,19.00
2024-04-02T15:09:00.451Z,18.80
2024-04-02T15:11:33.085Z,19.00
2024-04-02T15:14:02.618Z,19.20
2024-04-02T15:16:32.111Z,19.00
2024-04-02T15:19:01.679Z,18.90
2024-04-02T15:21:31.175Z,18.80
2024-04-02T15:24:00.708Z,19.10
2024-04-02T15:26:30.205Z,18.90
2024-04-02T15:29:01.637Z,18.90
2024-04-02T15:31:31.390Z,18.70
2024-04-02T15:34:01.300Z,18.80
2024-04-02T15:36:30.856Z,18.80
2024-04-02T15:39:00.607Z,18.80
2024-04-02T15:41:30.120Z,18.70
2024-04-02T15:43:59.765Z,18.50
2024-04-02T15:46:31.053Z,18.70
2024-04-02T15:49:00.610Z,18.60
2024-04-02T15:51:31.354Z,18.40
2024-04-02T15:54:02.724Z,18.40
2024-04-02T15:56:32.334Z,18.10
2024-04-02T15:59:05.576Z,18.20
2024-04-02T16:01:35.429Z,18.30
2024-04-02T16:04:05.618Z,18.30
2024-04-02T16:06:35.178Z,18.20
2024-04-02T16:09:04.741Z,18.10
2024-04-02T16:11:34.313Z,18.10
2024-04-02T16:14:03.931Z,18.00
2024-04-02T16:16:33.411Z,17.60
2024-04-02T16:19:02.991Z,17.70
2024-04-02T16:21:32.637Z,17.60
2024-04-02T16:24:02.458Z,17.70
2024-04-02T16:26:32.015Z,17.60
2024-04-02T16:29:02.077Z,17.70
2024-04-02T16:31:31.812Z,17.60
2024-04-02T16:34:01.444Z,17.40
2024-04-02T16:36:31.041Z,17.20
2024-04-02T16:39:00.624Z,17.50
2024-04-02T16:41:31.440Z,17.50
2024-04-02T16:44:01.731Z,17.60
2024-04-02T16:46:32.262Z,17.40
2024-04-02T16:49:03.048Z,17.20
2024-04-02T16:51:34.028Z,17.10
2024-04-02T16:54:03.760Z,17.10
2024-04-02T16:56:33.336Z,16.90
2024-04-02T16:59:02.858Z,16.80
2024-04-02T17:01:34.102Z,16.90
2024-04-02T17:04:03.659Z,16.80
2024-04-02T17:06:35.018Z,16.70
2024-04-02T17:09:04.628Z,16.60
2024-04-02T17:11:34.200Z,16.60
2024-04-02T17:14:03.861Z,16.50
2024-04-02T17:16:33.404Z,16.40
2024-04-02T17:19:03.572Z,16.20
2024-04-02T17:21:33.067Z,16.30
2024-04-02T17:24:02.550Z,16.30
2024-04-02T17:26:33.743Z,16.20
2024-04-02T17:29:03.372Z,16.00
2024-04-02T17:31:32.965Z,16.00
2024-04-02T17:34:02.473Z,16.00
2024-04-02T17:36:31.944Z,15.80
2024-04-02T17:39:01.514Z,15.70
2024-04-02T17:41:31.013Z,15.70
2024-04-02T17:44:00.520Z,15.50
2024-04-02T17:46:30.026Z,15.40
2024-04-02T17:48:59.588Z,15.40
2024-04-02T17:51:29.159Z,15.20
2024-04-02T17:54:00.601Z,15.30
2024-04-02T17:56:31.484Z,15.20
2024-04-02T17:59:01.204Z,15.20
2024-04-02T18:01:30.908Z,15.10
2024-04-02T18:04:02.146Z,15.10
2024-04-02T18:06:33.288Z,14.90
2024-04-02T18:09:03.415Z,14.90
2024-04-02T18:11:34.744Z,14.70
2024-04-02T18:14:04.457Z,14.60
2024-04-02T18:16:35.737Z,14.50
2024-04-02T18:19:05.706Z,14.40
2024-04-02T18:21:35.754Z,14.30
2024-04-02T18:24:06.286Z,14.20
2024-04-02T18:26:35.979Z,14.20
2024-04-02T18:29:07.170Z,14.40
2024-04-02T18:31:37.238Z,14.10
2024-04-02T18:34:06.744Z,14.10
2024-04-02T18:36:36.293Z,14.20
2024-04-02T18:39:07.173Z,14.10
2024-04-02T18:41:36.725Z,13.90
2024-04-02T18:44:06.401Z,13.80
2024-04-02T18:46:36.065Z,13.70
2024-04-02T18:49:05.565Z,13.70
2024-04-02T18:51:35.055Z,13.70
2024-04-02T18:54:04.987Z,13.60
2024-04-02T18:56:34.475Z,13.70
2024-04-02T18:59:03.968Z,13.60
2024-04-02T19:01:33.563Z,13.60
2024-04-02T19:04:03.644Z,13.70
2024-04-02T19:06:33.397Z,13.70
2024-04-02T19:09:04.762Z,13.50
2024-04-02T19:11:36.237Z,13.60
2024-04-02T19:14:05.804Z,13.60
2024-04-02T19:16:36.472Z,13.60
2024-04-02T19:19:05.966Z,13.50
2024-04-02T19:21:35.470Z,13.40
2024-04-02T19:24:05.323Z,13.50
2024-04-02T19:26:34.823Z,13.50
2024-04-02T19:29:04.498Z,13.40
2024-04-02T19:31:35.247Z,13.40
2024-04-02T19:34:04.988Z,13.40
2024-04-02T19:36:34.574Z,13.30
2024-04-02T19:39:04.143Z,13.20
2024-04-02T19:41:34.730Z,13.30
2024-04-02T19:44:04.282Z,13.30
2024-04-02T19:46:33.782Z,13.30
2024-04-02T19:49:03.290Z,13.20
2024-04-02T19:51:32.769Z,13.20
2024-04-02T19:54:02.333Z,13.10
2024-04-02T19:56:32.146Z,13.10
2024-04-02T19:59:03.442Z,13.10
2024-04-02T20:01:33.071Z,13.00
2024-04-02T20:04:02.568Z,13.10
2024-04-02T20:06:32.141Z,13.00
2024-04-02T20:09:03.368Z,13.10
2024-04-02T20:11:32.879Z,13.10
2024-04-02T20:14:02.452Z,13.00
2024-04-02T20:16:32.783Z,13.00
2024-04-02T20:19:03.832Z,13.00
2024-04-02T20:21:33.368Z,13.00
2024-04-02T20:24:04.739Z,12.90
2024-04-02T20:26:34.400Z,13.00
2024-04-02T20:29:03.993Z,13.00
2024-04-02T20:31:34.259Z,13.00
2024-04-02T20:34:03.742Z,13.00
2024-04-02T20:36:33.241Z,13.20
2024-04-02T20:39:04.461Z,12.90
2024-04-02T20:41:33.998Z,13.00
2024-04-02T20:44:03.779Z,13.10
2024-04-02T20:46:33.298Z,13.00
2024-04-02T20:49:02.824Z,13.10
2024-04-02T20:51:33.343Z,13.00
2024-04-02T20:54:04.551Z,13.10
2024-04-02T20:56:34.156Z,13.00
2024-04-02T20:59:04.918Z,13.00
2024-04-02T21:01:34.508Z,13.00
2024-04-02T21:04:04.632Z,13.00
2024-04-02T21:06:35.083Z,12.90
2024-04-02T21:09:05.686Z,12.90
2024-04-02T21:11:35.292Z,12.80
2024-04-02T21:14:04.796Z,12.90
2024-04-02T21:16:34.370Z,12.90
2024-04-02T21:19:03.971Z,12.80
2024-04-02T21:21:33.600Z,12.90
2024-04-02T21:24:03.100Z,12.90
2024-04-02T21:26:33.748Z,12.80
2024-04-02T21:29:03.576Z,12.90
2024-04-02T21:31:33.322Z,12.90
2024-04-02T21:34:03.186Z,12.80
2024-04-02T21:36:32.763Z,12.80
2024-04-02T21:39:02.580Z,12.70
2024-04-02T21:41:32.053Z,12.70
2024-04-02T21:44:01.554Z,12.80
2024-04-02T21:46:31.196Z,12.80
2024-04-02T21:49:00.837Z,12.70
2024-04-02T21:51:30.346Z,12.60
2024-04-02T21:54:20.404Z,12.80
2024-04-02T21:56:50.042Z,12.90
2024-04-02T21:59:20.027Z,12.80
2024-04-02T22:01:49.641Z,12.90
2024-04-02T22:04:19.131Z,12.70
2024-04-02T22:06:48.730Z,12.60
2024-04-02T22:09:18.274Z,12.70
2024-04-02T22:11:47.814Z,12.90
2024-04-02T22:14:17.323Z,12.90
2024-04-02T22:16:47.033Z,12.60
2024-04-02T22:19:16.661Z,12.60
2024-04-02T22:21:46.162Z,12.60
2024-04-02T22:24:15.680Z,12.70
2024-04-02T22:26:45.284Z,12.60
2024-04-02T22:29:14.909Z,12.60
2024-04-02T22:31:44.418Z,12.60
2024-04-02T22:34:13.924Z,12.60
2024-04-02T22:36:43.448Z,12.70
2024-04-02T22:39:12.912Z,12.60
2024-04-02T22:41:42.600Z,12.60
2024-04-02T22:44:12.164Z,12.60
2024-04-02T22:46:41.666Z,12.50
2024-04-02T22:49:11.260Z,12.60
2024-04-02T22:51:40.802Z,12.50
2024-04-02T22:54:10.343Z,12.40
2024-04-02T22:56:39.847Z,12.30
2024-04-02T22:59:09.355Z,12.30
2024-04-02T23:01:39.768Z,12.40
2024-04-02T23:04:09.334Z,12.30
2024-04-02T23:06:38.828Z,12.40
2024-04-02T23:09:08.382Z,12.40
2024-04-02T23:11:37.895Z,12.30
2024-04-02T23:14:07.677Z,12.40
2024-04-02T23:16:37.479Z,12.30
2024-04-02T23:19:07.042Z,12.30
2024-04-02T23:21:36.542Z,12.30
2024-04-02T23:24:06.213Z,12.30
2024-04-02T23:26:35.953Z,12.30
2024-04-02T23:29:05.441Z,12.40
2024-04-02T23:31:35.039Z,12.30
2024-04-02T23:34:04.611Z,12.40
2024-04-02T23:36:34.170Z,12.30
2024-04-02T23:39:03.788Z,12.30
2024-04-02T23:41:33.539Z,12.30
2024-04-02T23:44:03.573Z,12.30
2024-04-02T23:46:33.136Z,12.30
2024-04-02T23:49:02.715Z,12.30
2024-04-02T23:51:32.215Z,12.40
2024-04-02T23:54:01.842Z,12.30
2024-04-02T23:56:31.349Z,12.20
2024-04-02T23:59:00.854Z,12.20
